Time;durP1;ratioP1;P1;durP2;ratioP2;P2;SDS_P1;SDS_P2;PMS_P1;PMS_P2;Temp;Humidity;BMP_temperature;BMP_pressure;BME280_temperature;BME280_humidity;BME280_pressure;Samples;Min_cycle;Max_cycle;Signal;HPM_P1;HPM_P2
2022/08/02 00:02:03;;;;;;;6.03;3.20;;;19.70;1.00;;;;;;5096730;28;20498;-80
2022/08/02 00:04:30;;;;;;;3.50;3.20;;;19.70;1.00;;;;;;5096522;28;20950;-80
2022/08/02 00:06:57;;;;;;;5.17;3.23;;;19.50;1.00;;;;;;5121774;22;20502;-80
2022/08/02 00:09:24;;;;;;;4.47;3.47;;;19.70;1.00;;;;;;5114591;28;20797;-78
2022/08/02 00:11:50;;;;;;;6.37;3.33;;;19.70;1.00;;;;;;5114601;28;20446;-78
2022/08/02 00:14:17;;;;;;;6.97;3.20;;;19.70;1.00;;;;;;5116197;28;20817;-78
2022/08/02 00:16:45;;;;;;;4.27;3.37;;;19.70;1.00;;;;;;5118220;28;20452;-78
2022/08/02 00:19:12;;;;;;;3.63;3.03;;;19.80;1.00;;;;;;5118218;28;20450;-78
2022/08/02 00:21:39;;;;;;;4.33;3.70;;;19.80;1.00;;;;;;5122816;28;20438;-78
2022/08/02 00:24:06;;;;;;;4.80;3.13;;;19.80;1.00;;;;;;5124881;28;20512;-78
2022/08/02 00:26:33;;;;;;;2.70;2.53;;;19.70;99.90;;;;;;5126240;28;20454;-78
2022/08/02 00:28:59;;;;;;;6.00;3.17;;;19.80;99.90;;;;;;5126699;28;20470;-78
2022/08/02 00:31:26;;;;;;;5.83;3.07;;;19.80;99.90;;;;;;5126624;28;20485;-78
2022/08/02 00:33:54;;;;;;;3.70;3.30;;;19.90;99.90;;;;;;5125901;28;20457;-78
2022/08/02 00:36:21;;;;;;;3.87;2.70;;;20.00;99.90;;;;;;5125698;28;20443;-78
2022/08/02 00:38:48;;;;;;;5.40;2.40;;;20.10;1.00;;;;;;5118479;28;20458;-78
2022/08/02 00:41:16;;;;;;;4.57;2.83;;;20.00;10.30;;;;;;5118206;28;20969;-78
2022/08/02 00:43:43;;;;;;;2.90;2.17;;;19.90;1.00;;;;;;5117856;28;20826;-78
2022/08/02 00:46:10;;;;;;;6.93;3.03;;;19.80;1.00;;;;;;5117729;28;20443;-78
2022/08/02 00:48:37;;;;;;;4.83;2.80;;;19.70;1.00;;;;;;5118425;28;20833;-78
2022/08/02 00:51:05;;;;;;;3.37;3.07;;;19.70;1.00;;;;;;5118063;28;20443;-78
2022/08/02 00:53:32;;;;;;;7.53;2.97;;;19.70;1.00;;;;;;5117636;28;20461;-78
2022/08/02 00:55:59;;;;;;;3.70;3.10;;;19.60;99.90;;;;;;5118312;28;20451;-78
2022/08/02 00:58:26;;;;;;;4.43;3.07;;;19.60;1.00;;;;;;5120606;28;20466;-78
2022/08/02 01:00:56;;;;;;;6.90;3.30;;;19.60;1.00;;;;;;5121094;28;20443;-79
2022/08/02 01:03:23;;;;;;;3.47;3.23;;;19.50;1.00;;;;;;5122807;28;21004;-78
2022/08/02 01:05:50;;;;;;;2.90;2.60;;;19.50;1.00;;;;;;5119843;28;20925;-78
2022/08/02 01:08:18;;;;;;;5.80;4.17;;;19.50;1.00;;;;;;5118003;28;20474;-78
2022/08/02 01:10:45;;;;;;;5.60;3.20;;;19.50;1.00;;;;;;5117466;28;20443;-78
2022/08/02 01:13:11;;;;;;;7.17;3.03;;;19.60;1.00;;;;;;5118129;28;20840;-78
2022/08/02 01:15:45;;;;;;;4.57;2.50;;;19.60;1.00;;;;;;5121283;28;20455;-78
2022/08/02 01:18:23;;;;;;;3.00;2.20;;;19.60;1.00;;;;;;5125270;28;20459;-78
2022/08/02 01:21:09;;;;;;;5.87;2.87;;;19.50;1.00;;;;;;5124184;28;20423;-78
2022/08/02 01:23:51;;;;;;;3.10;2.50;;;19.50;97.00;;;;;;5121361;28;20515;-78
2022/08/02 01:26:46;;;;;;;3.63;2.80;;;19.50;99.90;;;;;;5117626;28;20484;-78
2022/08/02 01:29:18;;;;;;;2.90;2.60;;;19.40;1.00;;;;;;5117129;28;20419;-78
2022/08/02 01:31:51;;;;;;;4.03;2.43;;;19.30;1.00;;;;;;5116635;28;20441;-78
2022/08/02 01:34:20;;;;;;;6.00;3.13;;;19.40;17.50;;;;;;5117340;28;20498;-80
2022/08/02 01:36:53;;;;;;;3.10;2.80;;;19.30;1.00;;;;;;5116459;28;20450;-79
2022/08/02 01:39:25;;;;;;;6.10;3.03;;;19.40;1.00;;;;;;5117143;28;20430;-81
2022/08/02 01:41:53;;;;;;;7.47;3.30;;;19.40;1.00;;;;;;5116508;28;20435;-79
2022/08/02 01:44:22;;;;;;;5.70;2.90;;;19.30;1.00;;;;;;5116528;28;20479;-79
2022/08/02 01:46:50;;;;;;;3.40;2.33;;;19.10;99.90;;;;;;5116369;28;20454;-78
2022/08/02 01:49:21;;;;;;;6.27;2.97;;;19.20;99.90;;;;;;5116885;28;20454;-78
2022/08/02 01:54:38;;;;;;;4.70;3.20;;;19.30;99.90;;;;;;5117001;28;20402;-78
2022/08/02 01:57:07;;;;;;;3.83;2.93;;;19.20;1.00;;;;;;5117110;28;20473;-78
2022/08/02 01:59:36;;;;;;;3.40;3.10;;;19.30;93.20;;;;;;5117014;28;20454;-78
2022/08/02 02:02:04;;;;;;;14.53;2.90;;;19.20;1.00;;;;;;5116415;28;20474;-78
2022/08/02 02:04:32;;;;;;;4.57;3.43;;;19.20;99.90;;;;;;5116292;28;20475;-78
2022/08/02 02:07:00;;;;;;;3.93;2.50;;;19.20;99.90;;;;;;5118639;28;20470;-78
2022/08/02 02:09:30;;;;;;;7.13;2.37;;;19.10;1.00;;;;;;5120399;28;20432;-78
2022/08/02 02:11:59;;;;;;;7.70;2.80;;;19.10;1.00;;;;;;5116671;28;20427;-78
2022/08/02 02:14:28;;;;;;;3.17;2.70;;;19.10;92.20;;;;;;5116738;28;20770;-78
2022/08/02 02:16:58;;;;;;;5.83;3.17;;;19.20;99.90;;;;;;5116093;28;20447;-77
2022/08/02 02:19:26;;;;;;;5.47;2.70;;;19.20;99.90;;;;;;5115938;28;20427;-79
2022/08/02 02:21:53;;;;;;;3.43;2.57;;;19.30;1.00;;;;;;5115676;28;20450;-78
2022/08/02 02:24:19;;;;;;;3.50;2.73;;;19.20;99.90;;;;;;5115749;28;20486;-78
2022/08/02 02:26:47;;;;;;;5.37;2.43;;;19.10;99.90;;;;;;5125429;28;20439;-78
2022/08/02 02:29:16;;;;;;;5.17;2.83;;;19.20;99.90;;;;;;5116678;28;20447;-78
2022/08/02 02:31:46;;;;;;;5.73;3.07;;;19.20;99.90;;;;;;5115861;28;20470;-78
2022/08/02 02:34:16;;;;;;;5.07;3.40;;;19.20;99.90;;;;;;5115932;28;20434;-78
2022/08/02 02:36:50;;;;;;;4.83;3.80;;;19.20;99.90;;;;;;5116195;28;20431;-78
2022/08/02 02:39:20;;;;;;;8.00;4.00;;;19.10;99.90;;;;;;5116546;28;20895;-79
2022/08/02 02:41:49;;;;;;;4.37;2.77;;;19.20;99.90;;;;;;5114450;28;20527;-79
2022/08/02 02:44:19;;;;;;;3.77;3.27;;;19.10;76.70;;;;;;5114275;28;20482;-77
2022/08/02 02:46:47;;;;;;;7.40;3.70;;;19.10;1.00;;;;;;5114488;28;20443;-77
2022/08/02 02:49:17;;;;;;;10.00;3.70;;;19.10;1.00;;;;;;5114028;28;20454;-77
2022/08/02 02:51:45;;;;;;;6.17;3.67;;;19.00;1.00;;;;;;5115628;28;20512;-80
2022/08/02 02:54:14;;;;;;;8.73;3.43;;;19.00;1.00;;;;;;5116099;28;20446;-78
2022/08/02 02:56:43;;;;;;;16.10;3.30;;;19.10;1.00;;;;;;5115577;28;20640;-78
2022/08/02 02:59:12;;;;;;;5.47;3.10;;;19.00;99.90;;;;;;5115612;28;20447;-78
2022/08/02 03:01:40;;;;;;;3.30;2.97;;;19.10;99.90;;;;;;5116072;28;20450;-78
2022/08/02 03:04:11;;;;;;;4.93;3.13;;;19.00;99.90;;;;;;5115859;28;20482;-78
2022/08/02 03:06:40;;;;;;;5.83;2.97;;;19.00;99.90;;;;;;5116667;28;20450;-78
2022/08/02 03:09:07;;;;;;;6.97;3.13;;;19.10;99.90;;;;;;5115900;28;20446;-78
2022/08/02 03:11:35;;;;;;;6.30;2.77;;;19.10;1.00;;;;;;5115638;28;20488;-78
2022/08/02 03:14:04;;;;;;;3.50;3.20;;;19.00;1.00;;;;;;5115471;28;20967;-78
2022/08/02 03:16:31;;;;;;;4.17;2.37;;;19.00;1.00;;;;;;5115200;28;20441;-78
2022/08/02 03:19:01;;;;;;;5.17;2.60;;;19.20;1.00;;;;;;5115358;28;20469;-78
2022/08/02 03:21:28;;;;;;;8.03;3.00;;;19.10;99.90;;;;;;5115631;28;20423;-78
2022/08/02 03:23:56;;;;;;;3.73;2.27;;;19.20;99.90;;;;;;5115296;28;20875;-78
2022/08/02 03:26:23;;;;;;;12.63;2.90;;;19.10;99.90;;;;;;5115753;28;20450;-79
2022/08/02 03:28:49;;;;;;;4.07;2.40;;;19.10;99.90;;;;;;5123480;28;20459;-78
2022/08/02 03:31:17;;;;;;;2.70;1.90;;;19.10;99.90;;;;;;5122539;28;20443;-77
2022/08/02 03:33:44;;;;;;;4.37;2.60;;;19.10;99.90;;;;;;5122284;28;20479;-77
2022/08/02 03:36:12;;;;;;;4.43;2.57;;;19.10;2.60;;;;;;5116358;28;20973;-78
2022/08/02 03:38:40;;;;;;;7.43;2.97;;;19.00;6.00;;;;;;5120886;28;20467;-78
2022/08/02 03:41:09;;;;;;;5.20;2.40;;;19.00;1.00;;;;;;5116746;28;20439;-78
2022/08/02 03:43:37;;;;;;;4.40;2.70;;;19.00;1.00;;;;;;5117426;28;21019;-78
2022/08/02 03:46:06;;;;;;;6.00;3.50;;;18.90;1.00;;;;;;5115126;28;20457;-78
2022/08/02 03:48:33;;;;;;;8.20;2.70;;;18.80;1.00;;;;;;5115263;28;20470;-78
2022/08/02 03:51:00;;;;;;;8.53;2.10;;;18.90;1.00;;;;;;5119456;28;20439;-78
2022/08/02 03:53:28;;;;;;;6.23;2.50;;;18.70;1.00;;;;;;5118722;28;20435;-78
2022/08/02 03:55:55;;;;;;;2.77;2.10;;;18.70;1.00;;;;;;5120704;28;20447;-78
2022/08/02 03:58:24;;;;;;;3.43;2.70;;;18.70;1.00;;;;;;5120231;28;20552;-78
2022/08/02 04:00:52;;;;;;;6.13;2.40;;;18.70;1.00;;;;;;5119957;28;20450;-78
2022/08/02 04:03:20;;;;;;;4.20;2.43;;;18.70;1.00;;;;;;5118932;28;20523;-78
2022/08/02 04:05:46;;;;;;;7.73;2.50;;;18.70;1.00;;;;;;5118539;28;20454;-79
2022/08/02 04:08:13;;;;;;;7.33;3.00;;;18.50;35.10;;;;;;5118112;28;20487;-79
2022/08/02 04:13:28;;;;;;;3.83;2.33;;;18.60;1.00;;;;;;5118532;28;20395;-78
2022/08/02 04:15:59;;;;;;;5.30;3.03;;;18.50;18.80;;;;;;5118688;28;20471;-78
2022/08/02 04:18:34;;;;;;;5.20;3.17;;;18.60;41.90;;;;;;5118211;28;21004;-78
2022/08/02 04:21:04;;;;;;;4.80;2.53;;;18.60;40.80;;;;;;5118163;28;20526;-78
2022/08/02 04:23:33;;;;;;;8.00;3.47;;;18.60;65.70;;;;;;5119070;28;20485;-78
2022/08/02 04:26:00;;;;;;;4.67;2.50;;;18.70;99.90;;;;;;5118117;28;20447;-78
2022/08/02 04:28:29;;;;;;;7.17;3.37;;;18.70;99.90;;;;;;5119693;28;21050;-78
2022/08/02 04:30:57;;;;;;;10.10;3.23;;;18.70;99.90;;;;;;5120126;28;20443;-78
2022/08/02 04:33:24;;;;;;;4.70;2.47;;;18.70;99.90;;;;;;5118227;28;20817;-79
2022/08/02 04:35:51;;;;;;;8.23;2.80;;;18.70;99.90;;;;;;5117951;28;20513;-79
2022/08/02 04:38:18;;;;;;;3.70;2.60;;;18.80;99.90;;;;;;5117653;28;20473;-78
2022/08/02 04:40:52;;;;;;;3.67;2.70;;;18.70;99.90;;;;;;5118293;28;20454;-78
2022/08/02 04:43:19;;;;;;;5.90;3.20;;;18.70;99.90;;;;;;5118541;28;20446;-79
2022/08/02 04:45:48;;;;;;;4.30;2.23;;;18.80;99.90;;;;;;5118739;28;20447;-79
2022/08/02 04:48:14;;;;;;;4.10;2.70;;;18.80;99.90;;;;;;5120209;28;20833;-79
2022/08/02 04:50:41;;;;;;;29.57;18.03;;;18.80;99.90;;;;;;5122685;28;20447;-80
2022/08/02 04:53:08;;;;;;;5.47;2.70;;;18.90;99.90;;;;;;5122585;28;20458;-79
2022/08/02 04:55:35;;;;;;;6.07;2.30;;;19.00;1.00;;;;;;5120957;28;20446;-79
2022/08/02 04:58:01;;;;;;;5.53;3.00;;;18.90;96.90;;;;;;5119239;28;20467;-79
2022/08/02 05:00:29;;;;;;;4.60;2.77;;;18.90;97.30;;;;;;5117789;28;20464;-79
2022/08/02 05:02:58;;;;;;;7.30;2.67;;;18.90;33.50;;;;;;5118510;28;20473;-80
2022/08/02 05:05:26;;;;;;;6.80;2.60;;;18.80;38.00;;;;;;5117983;28;20482;-79
2022/08/02 05:07:52;;;;;;;5.00;2.37;;;18.90;43.30;;;;;;5116223;28;20855;-78
2022/08/02 05:10:19;;;;;;;14.33;9.80;;;18.80;28.20;;;;;;5117305;28;20446;-79
2022/08/02 05:12:46;;;;;;;4.83;3.27;;;18.90;99.90;;;;;;5118130;28;20825;-79
2022/08/02 05:15:15;;;;;;;3.93;2.70;;;19.00;23.20;;;;;;5119983;28;20439;-78
2022/08/02 05:17:42;;;;;;;7.30;3.10;;;19.10;49.20;;;;;;5119829;28;20439;-78
2022/08/02 05:20:13;;;;;;;5.43;2.53;;;19.10;99.90;;;;;;5117384;28;20695;-79
2022/08/02 05:22:40;;;;;;;6.83;2.23;;;19.10;20.30;;;;;;5118055;28;20505;-79
2022/08/02 05:25:08;;;;;;;3.47;2.70;;;19.00;25.70;;;;;;5118261;28;20479;-78
2022/08/02 05:27:35;;;;;;;8.37;3.00;;;19.00;89.20;;;;;;5118844;28;20485;-79
2022/08/02 05:30:02;;;;;;;7.13;2.13;;;19.00;53.00;;;;;;5118440;28;20447;-79
2022/08/02 05:32:29;;;;;;;6.10;2.83;;;19.00;98.50;;;;;;5119847;28;20435;-79
2022/08/02 05:34:55;;;;;;;6.07;2.83;;;18.90;22.80;;;;;;5120557;28;20790;-79
2022/08/02 05:37:23;;;;;;;3.40;2.60;;;18.90;51.70;;;;;;5124435;28;20988;-79
2022/08/02 05:39:50;;;;;;;6.20;2.70;;;18.90;69.30;;;;;;5123271;28;20459;-79
2022/08/02 05:42:17;;;;;;;5.97;2.63;;;18.80;96.80;;;;;;5120498;28;20451;-79
2022/08/02 05:44:43;;;;;;;3.23;2.90;;;18.80;98.20;;;;;;5118725;28;20938;-79
2022/08/02 05:47:10;;;;;;;5.10;2.83;;;18.80;99.90;;;;;;5119645;28;20455;-79
2022/08/02 05:49:37;;;;;;;5.90;2.67;;;18.80;86.60;;;;;;5122102;28;20443;-81
2022/08/02 05:52:10;;;;;;;3.23;2.93;;;18.80;77.40;;;;;;5115765;28;20442;-78
2022/08/02 05:54:47;;;;;;;4.73;3.23;;;18.80;52.70;;;;;;5115579;28;20427;-77
2022/08/02 05:57:19;;;;;;;7.80;3.30;;;18.90;22.70;;;;;;5116455;28;20512;-79
2022/08/02 05:59:58;;;;;;;2.87;2.43;;;19.00;32.60;;;;;;5116080;28;20431;-78
2022/08/02 06:02:30;;;;;;;7.77;3.00;;;19.10;7.90;;;;;;5120831;28;20431;-78
2022/08/02 06:05:03;;;;;;;6.03;3.07;;;19.10;1.00;;;;;;5124354;28;20569;-80
2022/08/02 06:07:30;;;;;;;5.73;2.77;;;19.50;55.80;;;;;;5146579;22;20473;-83
2022/08/02 06:09:59;;;;;;;4.43;2.60;;;19.20;1.00;;;;;;5121969;28;20443;-84
2022/08/02 06:12:31;;;;;;;6.23;2.90;;;19.30;1.00;;;;;;5121400;28;20516;-84
2022/08/02 06:14:59;;;;;;;6.93;2.97;;;19.40;1.00;;;;;;5121822;28;20415;-85
2022/08/02 06:17:26;;;;;;;6.53;3.50;;;19.40;1.00;;;;;;5120201;28;20463;-84
2022/08/02 06:19:57;;;;;;;6.30;2.47;;;19.40;1.00;;;;;;5119764;28;20439;-84
2022/08/02 06:22:26;;;;;;;7.07;3.13;;;19.50;1.00;;;;;;5120263;28;20431;-83
2022/08/02 06:24:55;;;;;;;7.97;3.17;;;19.50;1.00;;;;;;5120003;28;20486;-84
2022/08/02 06:27:27;;;;;;;6.73;2.90;;;19.50;1.00;;;;;;5119459;28;20489;-84
2022/08/02 06:29:55;;;;;;;9.63;3.53;;;19.60;1.00;;;;;;5119728;28;20762;-84
2022/08/02 06:32:22;;;;;;;5.90;2.57;;;19.70;1.00;;;;;;5119177;28;20933;-84
2022/08/02 06:34:49;;;;;;;8.00;4.20;;;19.80;1.10;;;;;;5120953;28;20845;-84
2022/08/02 06:37:36;;;;;;;4.97;3.00;;;19.60;1.00;;;;;;5119465;28;20941;-84
2022/08/02 06:40:07;;;;;;;5.10;3.40;;;20.10;71.10;;;;;;5118916;28;20472;-84
2022/08/02 06:42:44;;;;;;;4.60;2.80;;;20.00;53.80;;;;;;5119780;28;20944;-83
2022/08/02 06:45:11;;;;;;;4.03;2.50;;;20.10;91.30;;;;;;5119372;28;20470;-83
2022/08/02 06:47:37;;;;;;;5.23;2.70;;;20.30;99.90;;;;;;5119428;28;20467;-84
2022/08/02 06:50:05;;;;;;;6.43;3.90;;;20.20;1.00;;;;;;5119893;28;20976;-84
2022/08/02 06:52:32;;;;;;;4.63;3.07;;;20.30;1.00;;;;;;5120418;28;20443;-84
2022/08/02 06:55:00;;;;;;;6.33;2.70;;;20.40;25.50;;;;;;5126671;28;20449;-84
2022/08/02 06:57:27;;;;;;;6.97;2.27;;;20.40;1.00;;;;;;5137073;28;20459;-83
2022/08/02 06:59:55;;;;;;;6.50;2.50;;;20.50;1.00;;;;;;5137927;28;20446;-83
2022/08/02 07:02:22;;;;;;;4.00;2.40;;;20.40;1.00;;;;;;5137261;28;20474;-84
2022/08/02 07:04:50;;;;;;;7.90;3.87;;;20.50;1.00;;;;;;5127010;28;20543;-84
2022/08/02 07:07:17;;;;;;;9.03;3.33;;;20.40;1.00;;;;;;5120959;28;20446;-84
2022/08/02 07:09:44;;;;;;;6.57;2.77;;;20.50;1.00;;;;;;5120119;28;20431;-84
2022/08/02 07:12:11;;;;;;;9.43;3.47;;;20.40;1.00;;;;;;5120146;28;20937;-84
2022/08/02 07:14:38;;;;;;;6.40;2.60;;;20.40;1.00;;;;;;5119820;28;20444;-84
2022/08/02 07:17:06;;;;;;;20.13;14.33;;;20.50;1.00;;;;;;5119245;28;20443;-83
2022/08/02 07:19:33;;;;;;;5.13;3.70;;;20.50;1.00;;;;;;5122704;28;20443;-83
2022/08/02 07:22:00;;;;;;;4.07;2.83;;;20.60;1.00;;;;;;5119886;28;20443;-84
2022/08/02 07:24:27;;;;;;;6.27;3.20;;;20.80;1.00;;;;;;5123590;28;20953;-84
2022/08/02 07:26:53;;;;;;;5.13;2.47;;;20.60;1.00;;;;;;5126718;28;20457;-84
2022/08/02 07:29:20;;;;;;;6.37;3.90;;;20.50;1.00;;;;;;5124845;28;20528;-84
2022/08/02 07:31:47;;;;;;;6.73;3.03;;;20.40;1.00;;;;;;5126510;28;20439;-85
2022/08/02 07:34:15;;;;;;;8.70;2.73;;;20.60;12.50;;;;;;5126186;28;20443;-84
2022/08/02 07:36:42;;;;;;;5.70;3.27;;;20.90;1.00;;;;;;5127002;28;20439;-84
2022/08/02 07:39:09;;;;;;;4.67;3.73;;;21.10;1.00;;;;;;5126997;28;20473;-84
2022/08/02 07:41:36;;;;;;;5.03;3.40;;;21.10;1.00;;;;;;5127874;28;20439;-83
2022/08/02 07:44:02;;;;;;;7.43;3.07;;;21.10;1.00;;;;;;5129542;28;20427;-84
2022/08/02 07:46:30;;;;;;;7.33;3.10;;;21.20;1.00;;;;;;5123467;28;20489;-84
2022/08/02 07:48:56;;;;;;;6.57;2.70;;;21.10;1.00;;;;;;5121550;28;20477;-83
2022/08/02 07:51:25;;;;;;;5.77;2.70;;;21.30;1.00;;;;;;5123571;28;20438;-85
2022/08/02 07:53:52;;;;;;;7.73;3.60;;;21.40;1.00;;;;;;5128140;28;20946;-83
2022/08/02 07:56:18;;;;;;;8.27;3.10;;;21.20;1.00;;;;;;5130516;28;20529;-84
2022/08/02 07:58:45;;;;;;;6.50;3.17;;;21.30;1.00;;;;;;5126847;28;20469;-84
2022/08/02 08:01:12;;;;;;;3.43;2.90;;;21.50;1.00;;;;;;5124703;28;20451;-83
2022/08/02 08:03:41;;;;;;;2.80;2.13;;;21.60;1.00;;;;;;5123590;28;20449;-85
2022/08/02 08:06:07;;;;;;;4.80;2.20;;;21.30;1.00;;;;;;5123364;28;20479;-84
2022/08/02 08:08:35;;;;;;;5.80;2.80;;;21.60;1.00;;;;;;5122607;28;20474;-84
2022/08/02 08:11:02;;;;;;;3.67;2.17;;;21.50;1.00;;;;;;5122890;28;20454;-84
2022/08/02 08:13:29;;;;;;;8.57;2.90;;;21.40;1.00;;;;;;5123512;28;20443;-84
2022/08/02 08:15:56;;;;;;;6.03;2.90;;;21.40;1.00;;;;;;5123445;28;20438;-84
2022/08/02 08:18:22;;;;;;;2.87;2.50;;;21.40;1.00;;;;;;5128747;28;20474;-84
2022/08/02 08:20:50;;;;;;;7.07;4.47;;;21.50;1.00;;;;;;5124527;28;21012;-84
2022/08/02 08:23:17;;;;;;;5.40;4.23;;;21.60;1.00;;;;;;5124991;28;20519;-84
2022/08/02 08:25:45;;;;;;;4.63;2.57;;;21.90;1.00;;;;;;5125887;28;20841;-84
2022/08/02 08:28:12;;;;;;;3.50;2.67;;;22.00;1.00;;;;;;5129341;28;20459;-84
2022/08/02 08:30:40;;;;;;;2.73;2.53;;;22.20;1.00;;;;;;5126061;28;20443;-84
2022/08/02 08:33:07;;;;;;;3.77;2.20;;;22.20;1.00;;;;;;5123376;28;20500;-84
2022/08/02 08:35:34;;;;;;;3.70;2.20;;;22.30;1.00;;;;;;5124007;28;20446;-83
2022/08/02 08:38:01;;;;;;;3.30;1.93;;;22.30;1.00;;;;;;5123355;28;20467;-84
2022/08/02 08:40:30;;;;;;;7.53;2.67;;;22.10;1.00;;;;;;5124816;28;20522;-85
2022/08/02 08:42:58;;;;;;;3.40;2.70;;;22.00;1.00;;;;;;5124714;28;20450;-85
2022/08/02 08:45:25;;;;;;;13.10;3.00;;;22.10;1.00;;;;;;5124194;28;20479;-84
2022/08/02 08:47:57;;;;;;;5.80;2.90;;;22.20;1.00;;;;;;5125244;28;20482;-84
2022/08/02 08:50:25;;;;;;;4.40;2.37;;;22.30;1.00;;;;;;5132398;28;20511;-84
2022/08/02 08:53:00;;;;;;;2.67;2.47;;;22.20;1.00;;;;;;5128908;28;20439;-85
2022/08/02 08:55:28;;;;;;;9.50;3.47;;;22.00;1.00;;;;;;5129270;28;20443;-84
2022/08/02 08:57:57;;;;;;;4.00;2.10;;;22.20;1.00;;;;;;5128209;28;20467;-85
2022/08/02 09:00:27;;;;;;;3.30;1.77;;;22.40;1.00;;;;;;5129370;28;21038;-84
2022/08/02 09:03:02;;;;;;;5.10;3.67;;;22.50;1.00;;;;;;5128091;28;20447;-85
2022/08/02 09:05:29;;;;;;;4.70;2.60;;;22.60;1.00;;;;;;5128940;28;20466;-84
2022/08/02 09:07:56;;;;;;;2.80;1.77;;;22.70;1.00;;;;;;5127416;28;20482;-84
2022/08/02 09:10:37;;;;;;;3.17;2.70;;;22.80;1.00;;;;;;5128449;28;20423;-85
2022/08/02 09:13:09;;;;;;;3.30;2.80;;;22.90;1.00;;;;;;5129673;28;20433;-84
2022/08/02 09:15:38;;;;;;;2.93;2.30;;;22.80;1.00;;;;;;5128534;28;20431;-82
2022/08/02 09:18:06;;;;;;;7.53;2.40;;;22.90;1.00;;;;;;5127523;28;20482;-83
2022/08/02 09:20:33;;;;;;;3.50;2.40;;;23.00;1.00;;;;;;5137639;28;20933;-84
2022/08/02 09:23:11;;;;;;;3.53;2.30;;;22.70;1.00;;;;;;5134499;28;20921;-84
2022/08/02 09:25:38;;;;;;;2.87;2.30;;;22.90;1.00;;;;;;5128213;28;20470;-85
2022/08/02 09:28:06;;;;;;;2.40;1.90;;;22.80;1.00;;;;;;5125435;28;20469;-84
2022/08/02 09:30:42;;;;;;;2.40;2.17;;;22.90;1.00;;;;;;5124557;28;20514;-84
2022/08/02 09:33:10;;;;;;;2.70;2.07;;;22.80;1.00;;;;;;5124152;28;20450;-84
2022/08/02 09:35:38;;;;;;;4.10;2.50;;;22.90;1.00;;;;;;5128334;28;20516;-82
2022/08/02 09:38:10;;;;;;;1.70;1.60;;;23.10;1.00;;;;;;5125334;28;20494;-85
2022/08/02 09:40:38;;;;;;;3.57;1.80;;;23.20;1.00;;;;;;5124548;28;20461;-83
2022/08/02 09:43:05;;;;;;;5.40;2.50;;;23.20;1.00;;;;;;5107060;28;20641;-83
2022/08/02 09:45:33;;;;;;;4.47;2.07;;;23.50;1.00;;;;;;5123263;28;20475;-85
2022/08/02 09:48:01;;;;;;;3.87;2.27;;;23.10;1.00;;;;;;5123812;28;20488;-84
2022/08/02 09:50:30;;;;;;;3.63;2.50;;;23.10;1.00;;;;;;5122801;28;20447;-85
2022/08/02 09:52:57;;;;;;;4.57;2.17;;;22.90;1.00;;;;;;5122570;28;20442;-84
2022/08/02 09:55:25;;;;;;;3.30;2.27;;;23.10;1.00;;;;;;5121990;28;20439;-86
2022/08/02 09:57:52;;;;;;;3.63;1.83;;;23.30;1.00;;;;;;5121896;28;20487;-85
2022/08/02 10:03:22;;;;;;;3.97;2.73;;;23.30;1.00;;;;;;5063564;28;20437;-83
2022/08/02 10:05:57;;;;;;;2.73;2.30;;;23.80;1.00;;;;;;5072753;28;20486;-84
2022/08/02 10:08:28;;;;;;;3.37;2.17;;;23.70;1.00;;;;;;5123785;28;20912;-85
2022/08/02 10:11:02;;;;;;;2.93;2.17;;;23.80;1.00;;;;;;5123015;28;20431;-85
2022/08/02 10:13:30;;;;;;;2.63;1.83;;;23.90;1.00;;;;;;5120475;28;20470;-84
2022/08/02 10:16:03;;;;;;;3.00;2.37;;;24.00;1.00;;;;;;5120299;28;20441;-84
2022/08/02 10:18:30;;;;;;;5.20;2.77;;;;;;;;;;5121907;28;20474;-83
2022/08/02 10:21:07;;;;;;;2.10;2.00;;;23.10;1.00;;;;;;5123637;28;20439;-83
2022/08/02 10:23:38;;;;;;;2.47;1.93;;;23.60;1.00;;;;;;5123867;28;20808;-84
2022/08/02 10:26:07;;;;;;;2.83;2.33;;;23.60;1.00;;;;;;5123889;28;20469;-84
2022/08/02 10:28:44;;;;;;;3.03;2.30;;;23.80;1.00;;;;;;5124159;28;20463;-85
2022/08/02 10:31:14;;;;;;;4.87;2.93;;;24.00;1.00;;;;;;5123450;28;20463;-84
2022/08/02 10:33:43;;;;;;;3.07;2.40;;;24.10;1.00;;;;;;5124011;28;20530;-84
2022/08/02 10:36:13;;;;;;;3.43;2.90;;;24.10;1.00;;;;;;5126192;28;20450;-83
2022/08/02 10:38:47;;;;;;;3.50;2.57;;;24.20;1.00;;;;;;5124903;28;20972;-85
2022/08/02 10:41:14;;;;;;;2.80;2.20;;;;;;;;;;5124531;28;20454;-84
2022/08/02 10:43:44;;;;;;;2.37;2.20;;;24.00;1.00;;;;;;5126833;28;20442;-84
2022/08/02 10:46:37;;;;;;;5.70;2.47;;;23.60;1.00;;;;;;5121817;28;20479;-85
2022/08/02 10:49:08;;;;;;;3.73;2.30;;;23.50;1.00;;;;;;5072353;28;20466;-84
2022/08/02 10:52:06;;;;;;;3.10;2.40;;;23.50;1.00;;;;;;5119867;28;20898;-84
2022/08/02 10:54:35;;;;;;;3.00;2.30;;;23.60;1.00;;;;;;5126152;28;20417;-84
2022/08/02 10:57:03;;;;;;;5.90;1.93;;;23.70;1.00;;;;;;5122765;28;20428;-83
2022/08/02 10:59:31;;;;;;;5.73;3.67;;;23.70;1.00;;;;;;5118230;28;20439;-86
2022/08/02 11:02:02;;;;;;;2.33;2.13;;;24.00;1.00;;;;;;5119777;28;20538;-86
2022/08/02 11:04:30;;;;;;;2.37;2.03;;;24.00;1.00;;;;;;5122680;28;20431;-87
2022/08/02 11:07:15;;;;;;;4.73;2.47;;;24.10;1.00;;;;;;5123912;28;20482;-84
2022/08/02 11:09:43;;;;;;;2.50;2.30;;;24.30;1.00;;;;;;5126087;28;20906;-84
2022/08/02 11:12:12;;;;;;;4.20;2.53;;;24.50;1.00;;;;;;5127005;28;20447;-85
2022/08/02 11:14:41;;;;;;;2.63;1.90;;;24.50;1.00;;;;;;5125507;28;20469;-84
2022/08/02 11:17:13;;;;;;;3.40;2.70;;;24.50;99.90;;;;;;5124060;28;20538;-84
2022/08/02 11:20:14;;;;;;;3.10;2.83;;;24.50;1.00;;;;;;5121948;28;20442;-85
2022/08/02 11:22:44;;;;;;;3.27;2.23;;;24.50;99.90;;;;;;5124642;28;20513;-85
2022/08/02 11:25:35;;;;;;;2.70;2.50;;;24.40;99.90;;;;;;5130825;28;20431;-84
2022/08/02 11:28:11;;;;;;;4.40;2.90;;;24.50;99.90;;;;;;5115586;28;20494;-86
2022/08/02 11:30:38;;;;;;;5.43;3.03;;;24.70;1.00;;;;;;5122853;28;20875;-86
2022/08/02 11:33:05;;;;;;;5.37;2.27;;;24.50;1.00;;;;;;5121868;28;20968;-85
2022/08/02 11:35:34;;;;;;;3.20;2.77;;;24.70;99.90;;;;;;5122949;28;20945;-84
2022/08/02 11:38:15;;;;;;;2.70;1.80;;;24.40;99.90;;;;;;5122724;28;20550;-84
2022/08/02 11:40:43;;;;;;;3.37;2.27;;;24.60;99.90;;;;;;5129189;28;20422;-85
2022/08/02 11:43:21;;;;;;;5.80;2.60;;;24.60;99.90;;;;;;5122870;28;20450;-85
2022/08/02 11:45:49;;;;;;;3.63;2.70;;;24.70;99.90;;;;;;5120546;28;20570;-84
2022/08/02 11:48:30;;;;;;;4.43;2.07;;;24.70;99.90;;;;;;5120200;28;20554;-84
2022/08/02 11:51:08;;;;;;;2.93;2.30;;;24.90;99.90;;;;;;5122505;28;20469;-84
2022/08/02 11:53:44;;;;;;;3.20;2.50;;;25.10;99.90;;;;;;5122262;28;20491;-84
2022/08/02 11:56:12;;;;;;;2.97;2.73;;;;;;;;;;5121980;28;20858;-83
2022/08/02 11:58:39;;;;;;;4.17;2.20;;;;;;;;;;5121998;28;20949;-83
2022/08/02 12:01:07;;;;;;;3.83;2.60;;;25.00;99.90;;;;;;5122626;28;20453;-84
2022/08/02 12:03:36;;;;;;;8.07;5.20;;;25.00;99.90;;;;;;5126588;28;20447;-84
2022/08/02 12:06:04;;;;;;;2.90;2.67;;;;;;;;;;5124230;28;20565;-85
2022/08/02 12:08:31;;;;;;;3.43;2.70;;;25.20;99.90;;;;;;5145669;22;20492;-80
2022/08/02 12:11:01;;;;;;;2.83;2.60;;;25.20;99.90;;;;;;5093000;28;20504;-80
2022/08/02 12:13:28;;;;;;;2.43;2.23;;;25.30;99.90;;;;;;5098731;28;20435;-81
2022/08/02 12:19:17;;;;;;;2.53;2.33;;;25.40;99.90;;;;;;5094147;28;20526;-79
2022/08/02 12:21:33;;;;;;;4.40;2.23;;;25.30;99.90;;;;;;5090267;28;20460;-80
2022/08/02 12:24:00;;;;;;;4.27;3.70;;;25.30;99.90;;;;;;5093580;28;20474;-81
2022/08/02 12:26:29;;;;;;;4.03;3.00;;;25.30;99.90;;;;;;5086031;28;20484;-81
2022/08/02 12:28:57;;;;;;;4.57;2.33;;;25.30;99.90;;;;;;5084181;28;21020;-79
2022/08/02 12:31:40;;;;;;;3.47;2.00;;;25.40;99.90;;;;;;5083686;28;20444;-79
2022/08/02 12:34:15;;;;;;;5.10;2.30;;;25.40;99.90;;;;;;5087670;28;20429;-80
2022/08/02 12:36:43;;;;;;;3.53;2.43;;;25.60;99.90;;;;;;5085576;28;20429;-80
2022/08/02 12:39:13;;;;;;;2.50;2.30;;;25.60;99.90;;;;;;5084119;28;20472;-81
2022/08/02 12:41:41;;;;;;;7.30;3.27;;;25.30;99.90;;;;;;5086753;28;20861;-80
2022/08/02 12:44:16;;;;;;;2.43;2.10;;;25.30;99.90;;;;;;5090259;28;20460;-80
2022/08/02 12:46:43;;;;;;;6.00;2.50;;;25.50;99.90;;;;;;5096046;28;20464;-80
2022/08/02 12:49:21;;;;;;;3.30;2.30;;;25.60;99.90;;;;;;5094644;28;20469;-80
2022/08/02 12:51:48;;;;;;;4.63;2.80;;;25.70;99.90;;;;;;5087626;28;20432;-81
2022/08/02 12:54:17;;;;;;;6.40;2.50;;;25.80;99.90;;;;;;5087048;28;20453;-80
2022/08/02 12:56:45;;;;;;;3.17;2.33;;;25.80;99.90;;;;;;5085361;28;20963;-80
2022/08/02 12:59:15;;;;;;;4.50;3.00;;;25.80;99.90;;;;;;5086919;28;20468;-80
2022/08/02 13:01:44;;;;;;;3.53;3.10;;;25.70;99.90;;;;;;5083323;28;20448;-80
2022/08/02 13:04:11;;;;;;;6.97;3.13;;;25.80;99.90;;;;;;5083421;28;20472;-80
2022/08/02 13:06:37;;;;;;;4.57;3.20;;;25.90;99.90;;;;;;5083397;28;20481;-80
2022/08/02 13:09:13;;;;;;;4.87;4.40;;;25.90;99.90;;;;;;5085666;28;20477;-80
2022/08/02 13:11:39;;;;;;;3.83;3.47;;;25.90;99.90;;;;;;5085419;28;20791;-80
2022/08/02 13:14:10;;;;;;;3.37;3.07;;;26.40;99.90;;;;;;5087326;28;20445;-80
2022/08/02 13:16:37;;;;;;;6.17;3.77;;;26.10;99.90;;;;;;5088117;28;20472;-81